Time;durP1;ratioP1;P1;durP2;ratioP2;P2;SDS_P1;SDS_P2;PMS_P1;PMS_P2;Temp;Humidity;BMP_temperature;BMP_pressure;BME280_temperature;BME280_humidity;BME280_pressure;Samples;Min_cycle;Max_cycle;Signal;HPM_P1;HPM_P2
2022/01/04 00:02:20;;;;;;;1.50;0.40;;;;;;;;;;5016495;28;20029;-72
2022/01/04 00:04:46;;;;;;;0.47;0.47;;;;;;;;;;5016354;28;20048;-74
2022/01/04 00:07:11;;;;;;;1.35;0.70;;;;;;;;;;5032587;28;20029;-73
2022/01/04 00:09:40;;;;;;;0.65;0.45;;;;;;;;;;5032265;28;20025;-73
2022/01/04 00:14:56;;;;;;;1.15;0.60;;;;;;;;;;5026598;28;20032;-73
2022/01/04 00:17:21;;;;;;;0.70;0.60;;;;;;;;;;5012819;28;20450;-72
2022/01/04 00:19:47;;;;;;;0.28;0.28;;;;;;;;;;5012408;28;20053;-72
2022/01/04 00:22:12;;;;;;;0.35;0.32;;;;;;;;;;5012392;28;20070;-75
2022/01/04 00:24:37;;;;;;;0.57;0.47;;;;;;;;;;5014528;28;20483;-74
2022/01/04 00:27:03;;;;;;;0.80;0.73;;;;;;;;;;5032168;28;20033;-73
2022/01/04 00:29:28;;;;;;;1.25;0.40;;;;;;;;;;5023186;28;20082;-74
2022/01/04 00:31:54;;;;;;;0.50;0.40;;;;;;;;;;5011005;28;20505;-73
2022/01/04 00:34:19;;;;;;;1.23;0.60;;;;;;;;;;5012103;28;20044;-73
2022/01/04 00:36:45;;;;;;;0.85;0.47;;;;;;;;;;4992573;28;20488;-73
2022/01/04 00:39:10;;;;;;;1.23;0.60;;;;;;;;;;4992542;28;20036;-73
2022/01/04 00:41:35;;;;;;;0.40;0.40;;;;;;;;;;4992362;28;20026;-73
2022/01/04 00:44:00;;;;;;;0.88;0.50;;;;;;;;;;4992216;28;20587;-73
2022/01/04 00:46:26;;;;;;;1.60;0.60;;;;;;;;;;5026407;28;20029;-73
2022/01/04 00:49:10;;;;;;;0.50;0.50;;;;;;;;;;5030491;28;20036;-74
2022/01/04 00:52:00;;;;;;;1.33;0.65;;;;;;;;;;5030500;28;20069;-73
2022/01/04 00:54:26;;;;;;;0.60;0.60;;;;;;;;;;5030044;28;20466;-74
2022/01/04 00:56:52;;;;;;;1.02;0.70;;;;;;;;;;5010471;28;20025;-74
2022/01/04 00:59:17;;;;;;;1.17;1.00;;;;;;;;;;5011208;28;20022;-73
2022/01/04 01:01:42;;;;;;;1.38;1.10;;;;;;;;;;5010562;28;20117;-73
2022/01/04 01:04:10;;;;;;;1.13;1.00;;;;;;;;;;5010459;28;20033;-74
2022/01/04 01:06:35;;;;;;;1.70;1.10;;;;;;;;;;5026751;28;20437;-73
2022/01/04 01:09:01;;;;;;;1.60;1.35;;;;;;;;;;5030582;28;20061;-74
2022/01/04 01:11:26;;;;;;;1.15;1.05;;;;;;;;;;5030323;28;20144;-74
2022/01/04 01:13:52;;;;;;;2.58;1.33;;;;;;;;;;5030390;28;20037;-74
2022/01/04 01:16:19;;;;;;;1.52;1.20;;;;;;;;;;5014598;28;20026;-73
2022/01/04 01:18:44;;;;;;;2.63;1.27;;;;;;;;;;5010071;28;20030;-73
2022/01/04 01:21:10;;;;;;;1.90;1.20;;;;;;;;;;5010253;28;20042;-72
2022/01/04 01:23:36;;;;;;;2.20;1.50;;;;;;;;;;5010384;28;20028;-73
2022/01/04 01:26:04;;;;;;;2.45;1.30;;;;;;;;;;5009524;28;20430;-73
2022/01/04 01:28:29;;;;;;;2.63;1.42;;;;;;;;;;5010393;28;20480;-74
2022/01/04 01:30:55;;;;;;;3.15;1.50;;;;;;;;;;5010209;28;20030;-73
2022/01/04 01:33:20;;;;;;;2.20;1.60;;;;;;;;;;5010117;28;20030;-73
2022/01/04 01:35:46;;;;;;;1.85;1.40;;;;;;;;;;5009857;28;20022;-73
2022/01/04 01:38:14;;;;;;;2.65;1.33;;;;;;;;;;5010441;28;20053;-73
2022/01/04 01:40:40;;;;;;;3.13;1.50;;;;;;;;;;5010024;28;20090;-74
2022/01/04 01:43:06;;;;;;;4.72;1.55;;;;;;;;;;5010859;28;20495;-73
2022/01/04 01:45:32;;;;;;;2.97;1.48;;;;;;;;;;5018692;28;20120;-75
2022/01/04 01:47:58;;;;;;;2.58;1.45;;;;;;;;;;5009788;28;20109;-73
2022/01/04 01:50:23;;;;;;;1.83;1.33;;;;;;;;;;4974344;28;1037893;-73
2022/01/04 01:52:50;;;;;;;2.55;1.40;;;;;;;;;;5010727;28;20030;-75
2022/01/04 01:55:18;;;;;;;1.60;1.42;;;;;;;;;;5028681;28;20172;-74
2022/01/04 01:57:44;;;;;;;1.70;1.38;;;;;;;;;;5029152;28;20032;-72
2022/01/04 02:00:12;;;;;;;2.50;1.40;;;;;;;;;;5029795;28;20483;-74
2022/01/04 02:02:39;;;;;;;2.08;1.55;;;;;;;;;;5030214;28;20149;-74
2022/01/04 02:05:05;;;;;;;1.42;1.30;;;;;;;;;;5020514;28;20030;-73
2022/01/04 02:07:31;;;;;;;3.20;1.50;;;;;;;;;;5010642;28;20037;-76
2022/01/04 02:10:04;;;;;;;3.05;1.70;;;;;;;;;;5010578;28;20029;-73
2022/01/04 02:12:34;;;;;;;;;;;;;;;;;;5010271;28;20038;-74
2022/01/04 02:14:59;;;;;;;3.65;1.25;;;;;;;;;;5010199;28;19917;-72
2022/01/04 02:17:25;;;;;;;1.75;1.30;;;;;;;;;;5010186;28;20036;-73
2022/01/04 02:19:53;;;;;;;3.58;1.20;;;;;;;;;;5010312;28;20021;-72
2022/01/04 02:22:18;;;;;;;1.45;1.10;;;;;;;;;;5009895;28;20037;-71
2022/01/04 02:24:44;;;;;;;3.75;1.35;;;;;;;;;;5023480;28;20412;-74
2022/01/04 02:27:10;;;;;;;2.58;1.40;;;;;;;;;;5029750;28;20040;-74
2022/01/04 02:29:36;;;;;;;1.67;1.30;;;;;;;;;;5028019;28;20491;-73
2022/01/04 02:32:01;;;;;;;2.97;1.40;;;;;;;;;;5011054;28;20043;-75
2022/01/04 02:34:26;;;;;;;1.60;1.10;;;;;;;;;;5009929;28;20105;-73
2022/01/04 02:36:52;;;;;;;1.65;1.23;;;;;;;;;;5009926;28;20022;-75
2022/01/04 02:39:17;;;;;;;1.33;1.23;;;;;;;;;;5010377;28;20026;-73
2022/01/04 02:41:42;;;;;;;1.27;1.10;;;;;;;;;;5026157;28;20029;-73
2022/01/04 02:44:07;;;;;;;1.55;1.10;;;;;;;;;;5027933;28;20104;-75
2022/01/04 02:46:33;;;;;;;1.17;0.85;;;;;;;;;;5009778;28;20029;-74
2022/01/04 02:48:58;;;;;;;1.33;0.98;;;;;;;;;;5014148;28;20017;-75
2022/01/04 02:51:23;;;;;;;1.25;1.00;;;;;;;;;;5009509;28;20084;-75
2022/01/04 02:53:49;;;;;;;1.35;0.90;;;;;;;;;;5009781;28;20038;-73
2022/01/04 02:56:15;;;;;;;1.98;1.15;;;;;;;;;;5009531;28;20085;-75
2022/01/04 02:58:40;;;;;;;1.38;1.15;;;;;;;;;;5010015;28;20065;-75
2022/01/04 03:01:05;;;;;;;0.85;0.85;;;;;;;;;;5021050;28;20062;-73
2022/01/04 03:03:31;;;;;;;1.30;1.02;;;;;;;;;;5009865;28;20030;-74
2022/01/04 03:05:57;;;;;;;1.10;1.00;;;;;;;;;;5009860;28;20495;-75
2022/01/04 03:08:23;;;;;;;3.45;0.90;;;;;;;;;;5010439;28;20049;-76
2022/01/04 03:10:49;;;;;;;1.23;0.88;;;;;;;;;;4990885;28;20030;-76
2022/01/04 03:13:16;;;;;;;1.33;0.80;;;;;;;;;;4994037;28;20472;-76
2022/01/04 03:15:42;;;;;;;1.10;0.95;;;;;;;;;;4994037;28;20542;-73
2022/01/04 03:18:07;;;;;;;0.77;0.77;;;;;;;;;;4994730;28;20120;-76
2022/01/04 03:20:32;;;;;;;0.82;0.82;;;;;;;;;;5016463;28;20480;-75
2022/01/04 03:22:58;;;;;;;0.70;0.70;;;;;;;;;;5016256;28;20036;-75
2022/01/04 03:25:23;;;;;;;0.90;0.90;;;;;;;;;;5014651;28;20018;-73
2022/01/04 03:27:48;;;;;;;1.48;0.80;;;;;;;;;;5018822;28;20076;-74
2022/01/04 03:30:14;;;;;;;1.52;0.90;;;;;;;;;;5015408;28;20587;-74
2022/01/04 03:32:40;;;;;;;2.08;0.98;;;;;;;;;;5015618;28;20026;-76
2022/01/04 03:35:06;;;;;;;1.52;0.73;;;;;;;;;;5033298;28;20028;-74
2022/01/04 03:37:31;;;;;;;2.83;1.00;;;;;;;;;;5024599;28;20025;-77
2022/01/04 03:39:56;;;;;;;0.85;0.77;;;;;;;;;;5013246;28;20021;-72
2022/01/04 03:42:21;;;;;;;1.25;0.70;;;;;;;;;;5013086;28;20383;-74
2022/01/04 03:44:47;;;;;;;0.88;0.80;;;;;;;;;;5013086;28;20025;-73
2022/01/04 03:47:12;;;;;;;1.05;0.70;;;;;;;;;;5017987;28;20076;-77
2022/01/04 03:49:40;;;;;;;0.95;0.77;;;;;;;;;;5032922;28;20079;-76
2022/01/04 03:52:06;;;;;;;0.73;0.68;;;;;;;;;;5033086;28;20104;-75
2022/01/04 03:54:31;;;;;;;1.20;0.82;;;;;;;;;;5030542;28;20125;-76
2022/01/04 03:56:56;;;;;;;1.25;0.80;;;;;;;;;;5016075;28;20567;-76
2022/01/04 03:59:22;;;;;;;1.13;0.70;;;;;;;;;;5032853;28;20104;-75
2022/01/04 04:01:48;;;;;;;1.13;0.80;;;;;;;;;;5032769;28;20035;-76
2022/01/04 04:04:13;;;;;;;0.70;0.70;;;;;;;;;;5030264;28;20032;-75
2022/01/04 04:06:39;;;;;;;0.77;0.77;;;;;;;;;;5013220;28;20284;-76
2022/01/04 04:09:04;;;;;;;1.23;0.82;;;;;;;;;;5032145;28;20040;-76
2022/01/04 04:11:30;;;;;;;0.75;0.70;;;;;;;;;;5032500;28;20021;-75
2022/01/04 04:13:55;;;;;;;0.98;0.80;;;;;;;;;;5030485;28;20036;-76
2022/01/04 04:16:21;;;;;;;1.08;0.95;;;;;;;;;;5010351;28;20104;-75
2022/01/04 04:18:46;;;;;;;1.00;0.77;;;;;;;;;;5016677;28;20045;-76
2022/01/04 04:21:11;;;;;;;0.65;0.65;;;;;;;;;;5012133;28;20022;-76
2022/01/04 04:23:37;;;;;;;0.80;0.70;;;;;;;;;;5011951;28;20037;-75
2022/01/04 04:26:02;;;;;;;1.10;0.68;;;;;;;;;;5012151;28;20030;-75
2022/01/04 04:28:27;;;;;;;0.60;0.60;;;;;;;;;;5025068;28;20036;-76
2022/01/04 04:30:53;;;;;;;0.50;0.50;;;;;;;;;;5013729;28;20036;-75
2022/01/04 04:33:18;;;;;;;0.68;0.60;;;;;;;;;;5016874;28;20025;-74
2022/01/04 04:35:43;;;;;;;1.13;0.80;;;;;;;;;;5017275;28;20017;-73
2022/01/04 04:38:09;;;;;;;0.50;0.50;;;;;;;;;;5023303;28;20029;-74
2022/01/04 04:40:34;;;;;;;1.67;0.80;;;;;;;;;;5031840;28;20549;-75
2022/01/04 04:43:00;;;;;;;1.30;0.50;;;;;;;;;;5031710;28;20772;-74
2022/01/04 04:45:25;;;;;;;0.30;0.30;;;;;;;;;;5031616;28;20033;-74
2022/01/04 04:47:50;;;;;;;0.55;0.55;;;;;;;;;;5021154;28;20514;-74
2022/01/04 04:50:16;;;;;;;0.45;0.45;;;;;;;;;;5010289;28;20395;-73
2022/01/04 04:52:41;;;;;;;0.85;0.40;;;;;;;;;;5011971;28;20080;-73
2022/01/04 04:55:07;;;;;;;0.35;0.32;;;;;;;;;;5011863;28;20021;-75
2022/01/04 04:57:32;;;;;;;0.50;0.50;;;;;;;;;;5018449;28;20033;-73
2022/01/04 04:59:58;;;;;;;1.48;0.80;;;;;;;;;;5016231;28;20112;-74
2022/01/04 05:02:23;;;;;;;0.43;0.40;;;;;;;;;;5011690;28;20476;-74
2022/01/04 05:04:48;;;;;;;0.30;0.30;;;;;;;;;;5011409;28;20030;-74
2022/01/04 05:07:13;;;;;;;0.75;0.50;;;;;;;;;;5015608;28;20052;-73
2022/01/04 05:09:39;;;;;;;0.38;0.38;;;;;;;;;;5031186;28;20056;-74
2022/01/04 05:12:06;;;;;;;0.55;0.40;;;;;;;;;;5031345;28;20053;-73
2022/01/04 05:14:31;;;;;;;0.50;0.43;;;;;;;;;;5029658;28;20032;-73
2022/01/04 05:16:57;;;;;;;1.27;0.93;;;;;;;;;;5023457;28;20037;-73
2022/01/04 05:19:22;;;;;;;0.50;0.50;;;;;;;;;;5031198;28;20021;-74
2022/01/04 05:21:47;;;;;;;1.23;0.60;;;;;;;;;;5031181;28;20099;-74
2022/01/04 05:24:13;;;;;;;0.70;0.60;;;;;;;;;;5030909;28;20111;-74
2022/01/04 05:26:38;;;;;;;1.92;1.00;;;;;;;;;;5026904;28;20323;-73
2022/01/04 05:29:03;;;;;;;1.23;0.80;;;;;;;;;;5029585;28;20146;-74
2022/01/04 05:31:29;;;;;;;1.50;0.50;;;;;;;;;;5030915;28;20479;-74
2022/01/04 05:33:54;;;;;;;0.63;0.40;;;;;;;;;;5028797;28;20422;-73
2022/01/04 05:36:20;;;;;;;0.40;0.40;;;;;;;;;;5031157;28;20025;-73
2022/01/04 05:38:47;;;;;;;0.85;0.50;;;;;;;;;;5030728;28;20029;-74
2022/01/04 05:41:13;;;;;;;0.50;0.50;;;;;;;;;;5030764;28;20025;-74
2022/01/04 05:43:38;;;;;;;0.50;0.50;;;;;;;;;;5030373;28;20033;-74
2022/01/04 05:46:04;;;;;;;0.60;0.50;;;;;;;;;;5030747;28;20025;-74
2022/01/04 05:48:29;;;;;;;1.42;0.70;;;;;;;;;;5030908;28;20096;-74
2022/01/04 05:50:55;;;;;;;0.47;0.47;;;;;;;;;;5030505;28;20037;-75
2022/01/04 05:53:20;;;;;;;0.93;0.70;;;;;;;;;;5030946;28;20029;-74
2022/01/04 05:55:45;;;;;;;0.45;0.30;;;;;;;;;;5010654;28;20479;-74
2022/01/04 05:58:11;;;;;;;2.78;0.50;;;;;;;;;;5010577;28;20173;-74
2022/01/04 06:00:36;;;;;;;1.65;0.50;;;;;;;;;;5010626;28;20025;-73
2022/01/04 06:03:02;;;;;;;2.50;1.30;;;;;;;;;;5010689;28;20397;-74
2022/01/04 06:05:28;;;;;;;1.70;0.60;;;;;;;;;;5020325;28;20026;-74
2022/01/04 06:07:53;;;;;;;1.30;0.60;;;;;;;;;;5010621;28;20077;-74
2022/01/04 06:10:19;;;;;;;0.57;0.50;;;;;;;;;;5009948;28;20444;-75
2022/01/04 06:15:13;;;;;;;0.77;0.70;;;;;;;;;;5024145;28;20522;-74
2022/01/04 06:17:43;;;;;;;0.60;0.60;;;;;;;;;;5030041;28;20041;-74
2022/01/04 06:20:13;;;;;;;1.10;0.57;;;;;;;;;;5029865;28;20017;-74
2022/01/04 06:22:39;;;;;;;1.20;0.70;;;;;;;;;;5030250;28;20111;-74
2022/01/04 06:25:07;;;;;;;2.28;0.85;;;;;;;;;;5015349;28;20118;-74
2022/01/04 06:27:33;;;;;;;1.48;0.80;;;;;;;;;;5009255;28;20037;-74
2022/01/04 06:30:00;;;;;;;1.25;0.80;;;;;;;;;;5009519;28;20372;-74
2022/01/04 06:32:25;;;;;;;1.88;0.88;;;;;;;;;;5009394;28;20018;-74
2022/01/04 06:34:51;;;;;;;0.70;0.70;;;;;;;;;;5009471;28;20045;-74
2022/01/04 06:37:17;;;;;;;1.85;0.90;;;;;;;;;;5009671;28;20064;-74
2022/01/04 06:39:43;;;;;;;3.17;1.55;;;;;;;;;;5009739;28;20060;-74
2022/01/04 06:42:09;;;;;;;3.53;1.13;;;;;;;;;;5008045;28;20029;-74
2022/01/04 06:44:35;;;;;;;2.67;1.05;;;;;;;;;;5009737;28;20037;-74
2022/01/04 06:47:01;;;;;;;1.77;1.00;;;;;;;;;;5009953;28;20416;-74
2022/01/04 06:49:26;;;;;;;3.40;1.83;;;;;;;;;;5007995;28;20030;-74
2022/01/04 06:51:51;;;;;;;6.78;3.05;;;;;;;;;;5009669;28;20507;-74
2022/01/04 06:54:19;;;;;;;3.35;1.70;;;;;;;;;;5009194;28;20511;-74
2022/01/04 06:56:46;;;;;;;4.32;2.55;;;;;;;;;;5011015;28;20492;-74
2022/01/04 06:59:12;;;;;;;1.77;1.35;;;;;;;;;;5018426;28;20061;-74
2022/01/04 07:01:38;;;;;;;1.70;1.30;;;;;;;;;;5021398;28;20132;-74
2022/01/04 07:04:04;;;;;;;2.53;1.35;;;;;;;;;;5009163;28;20029;-74
2022/01/04 07:06:29;;;;;;;1.70;1.45;;;;;;;;;;5011093;28;20029;-74
2022/01/04 07:08:55;;;;;;;3.25;2.20;;;;;;;;;;5009072;28;20083;-74
2022/01/04 07:11:21;;;;;;;2.85;1.42;;;;;;;;;;5007088;28;20038;-74
2022/01/04 07:13:46;;;;;;;2.38;1.38;;;;;;;;;;4999223;28;20037;-73
2022/01/04 07:16:12;;;;;;;2.28;1.33;;;;;;;;;;5008068;28;20069;-73
2022/01/04 07:18:37;;;;;;;2.95;1.58;;;;;;;;;;5006636;28;20497;-73
2022/01/04 07:21:03;;;;;;;2.70;1.70;;;;;;;;;;5005007;28;20026;-74
2022/01/04 07:23:29;;;;;;;3.80;2.00;;;;;;;;;;5004216;28;20033;-73
2022/01/04 07:25:55;;;;;;;2.85;2.08;;;;;;;;;;5006333;28;20430;-73
2022/01/04 07:28:21;;;;;;;2.78;1.70;;;;;;;;;;5016786;28;20028;-73
2022/01/04 07:30:46;;;;;;;3.13;2.08;;;;;;;;;;5004688;28;20065;-73
2022/01/04 07:33:13;;;;;;;2.25;1.92;;;;;;;;;;5004871;28;20056;-73
2022/01/04 07:35:38;;;;;;;4.25;2.22;;;;;;;;;;5005172;28;20487;-74
2022/01/04 07:38:04;;;;;;;10.18;5.55;;;;;;;;;;5005384;28;20033;-74
2022/01/04 07:40:29;;;;;;;2.92;1.90;;;;;;;;;;5004120;28;20017;-74
2022/01/04 07:42:59;;;;;;;3.60;2.13;;;;;;;;;;5003826;28;20403;-75
2022/01/04 07:45:32;;;;;;;2.55;2.25;;;;;;;;;;5007232;28;20076;-74
2022/01/04 07:47:57;;;;;;;3.67;2.22;;;;;;;;;;5006001;28;20407;-74
2022/01/04 07:50:23;;;;;;;3.10;2.40;;;;;;;;;;5005098;28;20227;-73
2022/01/04 07:52:48;;;;;;;3.92;2.42;;;;;;;;;;5005092;28;20120;-75
2022/01/04 07:55:14;;;;;;;4.15;2.90;;;;;;;;;;5005538;28;20038;-74
2022/01/04 07:57:41;;;;;;;5.28;3.58;;;;;;;;;;5007504;28;20029;-74
2022/01/04 08:00:08;;;;;;;2.80;2.22;;;;;;;;;;5009116;28;20029;-74
2022/01/04 08:02:34;;;;;;;3.00;2.47;;;;;;;;;;5015166;28;20332;-73
2022/01/04 08:04:59;;;;;;;2.90;2.60;;;;;;;;;;5022129;28;20121;-73
2022/01/04 08:07:24;;;;;;;2.10;1.90;;;;;;;;;;5008784;28;20132;-73
2022/01/04 08:09:50;;;;;;;2.53;1.80;;;;;;;;;;5008555;28;20241;-73
2022/01/04 08:12:15;;;;;;;1.83;1.40;;;;;;;;;;5008413;28;20168;-74
2022/01/04 08:14:40;;;;;;;1.70;1.48;;;;;;;;;;5009191;28;20243;-76
2022/01/04 08:17:06;;;;;;;1.40;1.30;;;;;;;;;;5008319;28;20483;-73
2022/01/04 08:19:31;;;;;;;1.85;1.65;;;;;;;;;;5007781;28;20030;-74
2022/01/04 08:21:57;;;;;;;2.00;1.85;;;;;;;;;;5008627;28;20061;-74
2022/01/04 08:24:22;;;;;;;2.35;2.15;;;;;;;;;;5008571;28;20037;-74
2022/01/04 08:26:47;;;;;;;2.75;2.00;;;;;;;;;;5005931;28;20109;-73
2022/01/04 08:29:12;;;;;;;2.30;2.10;;;;;;;;;;5005750;28;20113;-74
2022/01/04 08:31:38;;;;;;;2.55;2.28;;;;;;;;;;5007615;28;20075;-74
2022/01/04 08:34:03;;;;;;;2.25;1.58;;;;;;;;;;5021848;28;20034;-74
2022/01/04 08:36:29;;;;;;;1.77;1.58;;;;;;;;;;5006805;28;20022;-74
2022/01/04 08:38:56;;;;;;;1.35;1.20;;;;;;;;;;5008648;28;20037;-74
2022/01/04 08:41:21;;;;;;;2.58;2.15;;;;;;;;;;5008323;28;20245;-74
2022/01/04 08:43:47;;;;;;;1.67;1.40;;;;;;;;;;5018916;28;20026;-75
2022/01/04 08:46:12;;;;;;;1.35;1.13;;;;;;;;;;5012039;28;20079;-75
2022/01/04 08:48:37;;;;;;;3.80;1.98;;;;;;;;;;5014201;28;20029;-74
2022/01/04 08:51:03;;;;;;;2.78;2.20;;;;;;;;;;5011586;28;20569;-75
2022/01/04 08:53:28;;;;;;;3.92;2.80;;;;;;;;;;5008852;28;20034;-75
2022/01/04 08:55:56;;;;;;;3.15;2.20;;;;;;;;;;5007098;28;20025;-74
2022/01/04 08:58:21;;;;;;;3.58;1.70;;;;;;;;;;5015230;28;20040;-74
2022/01/04 09:00:48;;;;;;;2.50;1.77;;;;;;;;;;5024057;28;20017;-75
2022/01/04 09:03:14;;;;;;;3.42;2.70;;;;;;;;;;5014593;28;20034;-75
2022/01/04 09:05:39;;;;;;;2.97;2.10;;;;;;;;;;5019545;28;20030;-74
2022/01/04 09:08:04;;;;;;;2.65;2.10;;;;;;;;;;5006738;28;20357;-74
2022/01/04 09:10:30;;;;;;;18.08;11.45;;;;;;;;;;5020167;28;20361;-74
2022/01/04 09:13:01;;;;;;;37.55;21.83;;;;;;;;;;5006703;28;20038;-75
2022/01/04 09:20:37;;;;;;;8.32;5.03;;;;;;;;;;5007524;28;20323;-75
2022/01/04 09:23:02;;;;;;;9.13;5.45;;;;;;;;;;5007489;28;20435;-75
2022/01/04 09:25:28;;;;;;;8.23;4.78;;;;;;;;;;5008246;28;20068;-75
2022/01/04 09:27:53;;;;;;;4.03;2.60;;;;;;;;;;5012977;28;20057;-74
2022/01/04 09:30:18;;;;;;;4.65;2.70;;;;;;;;;;5005488;28;20033;-75
2022/01/04 09:32:44;;;;;;;2.63;1.50;;;;;;;;;;5006509;28;20026;-75
2022/01/04 09:35:12;;;;;;;2.15;1.15;;;;;;;;;;5018093;28;20030;-75
2022/01/04 09:37:38;;;;;;;3.92;2.75;;;;;;;;;;5007384;28;20164;-75
2022/01/04 09:40:04;;;;;;;3.25;2.40;;;;;;;;;;5006953;28;20486;-75
2022/01/04 09:42:31;;;;;;;4.53;2.70;;;;;;;;;;5007101;28;20025;-74
2022/01/04 09:44:56;;;;;;;3.83;3.30;;;;;;;;;;5010307;28;20029;-75
2022/01/04 09:47:22;;;;;;;7.65;5.07;;;;;;;;;;5011402;28;20052;-75
2022/01/04 09:49:47;;;;;;;11.10;6.75;;;;;;;;;;5036853;22;20029;-71
2022/01/04 09:52:18;;;;;;;7.43;4.55;;;;;;;;;;5006478;28;20061;-74
2022/01/04 09:54:43;;;;;;;8.10;4.85;;;;;;;;;;5006730;28;20878;-73
2022/01/04 09:57:08;;;;;;;7.07;4.38;;;;;;;;;;5009739;28;20175;-75
2022/01/04 09:59:34;;;;;;;4.38;2.40;;;;;;;;;;5006910;28;20103;-73
2022/01/04 10:02:14;;;;;;;4.00;2.50;;;;;;;;;;5006510;28;20022;-74
2022/01/04 10:04:39;;;;;;;2.25;1.77;;;;;;;;;;5006050;28;20037;-73
2022/01/04 10:07:07;;;;;;;2.70;2.00;;;;;;;;;;4995352;28;20025;-72
2022/01/04 10:09:45;;;;;;;1.77;1.30;;;;;;;;;;5006144;28;20050;-73
2022/01/04 10:12:21;;;;;;;2.72;1.60;;;;;;;;;;5004821;28;20033;-73
2022/01/04 10:14:48;;;;;;;2.65;1.50;;;;;;;;;;4998583;28;20041;-73
2022/01/04 10:17:28;;;;;;;3.42;1.85;;;;;;;;;;4998376;28;20483;-74
2022/01/04 10:19:56;;;;;;;5.35;3.15;;;;;;;;;;5006133;28;20259;-73
2022/01/04 10:22:27;;;;;;;5.20;3.53;;;;;;;;;;5003396;28;20026;-73
2022/01/04 10:25:02;;;;;;;3.10;2.40;;;;;;;;;;5004168;28;20033;-73
2022/01/04 10:27:30;;;;;;;5.60;3.38;;;;;;;;;;5006978;28;20106;-73
2022/01/04 10:30:09;;;;;;;3.80;2.45;;;;;;;;;;5003928;28;20049;-73
2022/01/04 10:32:53;;;;;;;3.13;2.20;;;;;;;;;;5004792;28;20044;-73
2022/01/04 10:35:33;;;;;;;1.80;1.30;;;;;;;;;;5006787;28;20095;-73
2022/01/04 10:38:21;;;;;;;1.70;1.33;;;;;;;;;;5007090;28;20040;-73
2022/01/04 10:41:01;;;;;;;2.33;1.50;;;;;;;;;;5005355;28;20026;-73
2022/01/04 10:43:33;;;;;;;1.65;1.17;;;;;;;;;;4995471;28;20379;-73
2022/01/04 10:46:01;;;;;;;3.05;1.40;;;;;;;;;;5006064;28;20139;-73
2022/01/04 10:48:28;;;;;;;2.97;1.77;;;;;;;;;;5006422;28;20103;-74
2022/01/04 10:50:56;;;;;;;2.58;1.63;;;;;;;;;;5004804;28;20022;-73
2022/01/04 10:53:25;;;;;;;2.30;1.63;;;;;;;;;;5001943;28;20112;-73
2022/01/04 10:55:55;;;;;;;2.22;1.30;;;;;;;;;;5006050;28;20076;-72
2022/01/04 10:58:25;;;;;;;3.58;1.80;;;;;;;;;;5005872;28;20033;-73
2022/01/04 11:00:53;;;;;;;1.63;1.00;;;;;;;;;;5000893;28;20033;-73
2022/01/04 11:03:24;;;;;;;1.98;1.40;;;;;;;;;;5004922;28;20030;-73
2022/01/04 11:06:13;;;;;;;1.98;1.52;;;;;;;;;;5006076;28;20434;-73
2022/01/04 11:08:40;;;;;;;2.13;1.10;;;;;;;;;;5012422;28;20046;-72
2022/01/04 11:11:05;;;;;;;1.70;0.88;;;;;;;;;;5003899;28;20022;-73
2022/01/04 11:13:31;;;;;;;2.25;1.20;;;;;;;;;;5005549;28;20242;-73
2022/01/04 11:15:57;;;;;;;2.63;1.20;;;;;;;;;;5004850;28;20157;-73
2022/01/04 11:18:23;;;;;;;1.60;1.00;;;;;;;;;;5004657;28;20030;-72
2022/01/04 11:20:50;;;;;;;0.85;0.80;;;;;;;;;;5003768;28;20510;-72
2022/01/04 11:23:16;;;;;;;2.47;1.92;;;;;;;;;;5005267;28;20026;-72
2022/01/04 11:25:45;;;;;;;0.65;0.60;;;;;;;;;;5005985;28;20407;-73
2022/01/04 11:28:14;;;;;;;1.70;1.00;;;;;;;;;;5004964;28;20032;-73
2022/01/04 11:30:53;;;;;;;1.65;1.45;;;;;;;;;;5005036;28;20032;-73
2022/01/04 11:33:45;;;;;;;73.43;30.40;;;;;;;;;;5008577;28;20391;-72
2022/01/04 11:36:15;;;;;;;164.75;79.15;;;;;;;;;;5009841;28;20558;-73
2022/01/04 11:38:41;;;;;;;72.95;33.65;;;;;;;;;;5005312;28;20026;-72
2022/01/04 11:41:06;;;;;;;60.08;31.33;;;;;;;;;;5008738;28;20383;-72
2022/01/04 11:43:40;;;;;;;40.38;23.50;;;;;;;;;;5008974;28;20116;-73
2022/01/04 11:46:06;;;;;;;23.17;14.75;;;;;;;;;;4989714;28;20022;-72
2022/01/04 11:48:42;;;;;;;3.78;2.97;;;;;;;;;;5007769;28;20395;-72
2022/01/04 11:51:09;;;;;;;4.30;3.63;;;;;;;;;;5005807;28;20121;-72
2022/01/04 11:53:36;;;;;;;1.75;1.60;;;;;;;;;;5012442;28;20034;-72
2022/01/04 11:56:06;;;;;;;1.77;1.42;;;;;;;;;;5012481;28;20455;-72
2022/01/04 11:58:47;;;;;;;3.40;3.10;;;;;;;;;;5012139;28;20083;-72
2022/01/04 12:01:16;;;;;;;6.03;3.17;;;;;;;;;;5012848;28;20146;-72
2022/01/04 12:03:47;;;;;;;4.57;3.13;;;;;;;;;;5012175;28;20111;-73
2022/01/04 12:06:17;;;;;;;2.10;1.63;;;;;;;;;;5013299;28;20030;-72
2022/01/04 12:08:51;;;;;;;1.63;1.08;;;;;;;;;;5012856;28;20034;-72
2022/01/04 12:11:25;;;;;;;2.03;1.45;;;;;;;;;;5013338;28;20026;-73
2022/01/04 12:13:56;;;;;;;2.05;1.65;;;;;;;;;;5012635;28;20041;-72
2022/01/04 12:16:42;;;;;;;2.28;1.52;;;;;;;;;;5013178;28;20572;-72
2022/01/04 12:19:12;;;;;;;1.13;1.02;;;;;;;;;;4998131;28;20104;-72
2022/01/04 12:21:46;;;;;;;1.75;1.20;;;;;;;;;;4991426;28;20033;-72
2022/01/04 12:24:14;;;;;;;2.40;0.95;;;;;;;;;;4993998;28;20030;-72
2022/01/04 12:26:40;;;;;;;1.80;1.13;;;;;;;;;;5010658;28;20040;-72
2022/01/04 12:29:05;;;;;;;1.50;1.10;;;;;;;;;;5008117;28;20037;-73
2022/01/04 12:31:30;;;;;;;1.08;0.80;;;;;;;;;;5010304;28;20034;-72
2022/01/04 12:34:04;;;;;;;2.20;1.00;;;;;;;;;;5011022;28;20034;-72
2022/01/04 12:36:36;;;;;;;0.93;0.85;;;;;;;;;;5012173;28;20030;-73
2022/01/04 12:39:08;;;;;;;1.83;0.80;;;;;;;;;;5000852;28;20053;-72
2022/01/04 12:41:37;;;;;;;9.10;4.53;;;;;;;;;;4992177;28;20515;-72
2022/01/04 12:44:04;;;;;;;14.15;8.20;;;;;;;;;;5004318;28;20072;-73
2022/01/04 12:46:35;;;;;;;14.88;9.93;;;;;;;;;;5011842;28;20033;-73
2022/01/04 12:49:04;;;;;;;14.30;8.55;;;;;;;;;;5009956;28;20499;-72
2022/01/04 12:51:38;;;;;;;12.55;8.30;;;;;;;;;;5004113;28;20117;-74
2022/01/04 12:54:07;;;;;;;3.53;3.22;;;;;;;;;;5010833;28;20038;-74
2022/01/04 12:56:38;;;;;;;2.05;1.85;;;;;;;;;;4994709;28;20026;-74
2022/01/04 12:59:04;;;;;;;9.52;6.90;;;;;;;;;;5000391;28;20037;-73
2022/01/04 13:01:31;;;;;;;6.00;5.22;;;;;;;;;;5011594;28;20037;-74
2022/01/04 13:03:57;;;;;;;2.65;2.22;;;;;;;;;;5009768;28;20033;-73
2022/01/04 13:06:24;;;;;;;2.28;2.08;;;;;;;;;;4992642;28;20042;-73
2022/01/04 13:08:58;;;;;;;1.25;0.85;;;;;;;;;;4995343;28;20038;-73
2022/01/04 13:11:24;;;;;;;1.25;1.10;;;;;;;;;;5006309;28;20037;-72
2022/01/04 13:13:54;;;;;;;2.05;1.80;;;;;;;;;;5007667;28;20053;-73
2022/01/04 13:16:25;;;;;;;0.75;0.70;;;;;;;;;;5010957;28;20084;-73
2022/01/04 13:18:51;;;;;;;0.60;0.60;;;;;;;;;;5011379;28;20537;-73
2022/01/04 13:21:17;;;;;;;1.40;1.10;;;;;;;;;;5011296;28;20105;-74
2022/01/04 13:23:43;;;;;;;1.42;1.33;;;;;;;;;;4998235;28;20101;-78
2022/01/04 13:26:11;;;;;;;2.03;1.20;;;;;;;;;;5013276;28;20273;-76
2022/01/04 13:28:39;;;;;;;5.07;2.30;;;;;;;;;;5014905;28;20033;-78
2022/01/04 13:31:05;;;;;;;4.38;2.75;;;;;;;;;;5014340;28;20026;-79
2022/01/04 13:33:36;;;;;;;3.28;2.30;;;;;;;;;;5003296;28;20242;-76
2022/01/04 13:36:08;;;;;;;2.35;2.03;;;;;;;;;;4994029;28;20038;-77
2022/01/04 13:38:36;;;;;;;1.92;1.17;;;;;;;;;;4995047;28;20026;-78
2022/01/04 13:41:03;;;;;;;3.40;2.13;;;;;;;;;;4995123;28;20511;-77
2022/01/04 13:43:33;;;;;;;4.75;3.03;;;;;;;;;;5002716;28;20049;-76
2022/01/04 13:46:06;;;;;;;2.83;1.38;;;;;;;;;;5013732;28;20030;-77
2022/01/04 13:48:37;;;;;;;2.92;1.70;;;;;;;;;;4996774;28;20052;-78
2022/01/04 13:51:11;;;;;;;1.30;0.93;;;;;;;;;;4997132;28;20030;-77
2022/01/04 13:53:42;;;;;;;3.42;1.30;;;;;;;;;;5006111;28;20034;-78
2022/01/04 13:56:13;;;;;;;1.98;0.80;;;;;;;;;;5012924;28;20080;-77
2022/01/04 13:58:50;;;;;;;1.85;1.10;;;;;;;;;;5014932;28;20026;-76
2022/01/04 14:01:38;;;;;;;1.98;0.90;;;;;;;;;;5016081;28;20106;-77
2022/01/04 14:04:10;;;;;;;1.83;1.23;;;;;;;;;;5017187;28;20021;-77
2022/01/04 14:06:57;;;;;;;4.05;3.00;;;;;;;;;;5018648;28;20555;-78
2022/01/04 14:09:27;;;;;;;2.83;1.30;;;;;;;;;;5015165;28;20097;-80
2022/01/04 14:12:01;;;;;;;1.25;1.10;;;;;;;;;;5015015;28;20033;-79
2022/01/04 14:14:32;;;;;;;2.08;1.10;;;;;;;;;;5010688;28;20033;-75
2022/01/04 14:17:08;;;;;;;1.75;1.00;;;;;;;;;;5008635;28;20034;-74
2022/01/04 14:19:47;;;;;;;2.63;1.00;;;;;;;;;;5010145;28;20502;-74
2022/01/04 14:22:20;;;;;;;1.13;1.02;;;;;;;;;;5010174;28;20030;-75
2022/01/04 14:24:50;;;;;;;;;;;;;;;;;;5004380;28;20037;-74
2022/01/04 14:27:32;;;;;;;0.70;0.65;;;;;;;;;;4989109;28;19980;-75
2022/01/04 14:30:12;;;;;;;3.50;0.98;;;;;;;;;;4990457;28;20061;-74
2022/01/04 14:32:41;;;;;;;1.13;0.80;;;;;;;;;;4991265;28;20026;-75
2022/01/04 14:35:13;;;;;;;3.28;1.10;;;;;;;;;;4991529;28;20026;-76
2022/01/04 14:37:41;;;;;;;0.80;0.80;;;;;;;;;;5009327;28;20030;-76
2022/01/04 14:40:08;;;;;;;2.78;1.38;;;;;;;;;;5011059;28;20022;-75
2022/01/04 14:42:34;;;;;;;3.28;1.60;;;;;;;;;;5011608;28;20037;-75
2022/01/04 14:44:59;;;;;;;6.25;3.00;;;;;;;;;;4996464;28;20030;-76
2022/01/04 14:47:25;;;;;;;1.15;1.00;;;;;;;;;;5005337;28;20029;-75
2022/01/04 14:49:50;;;;;;;1.73;1.10;;;;;;;;;;5009550;28;20041;-74
2022/01/04 14:52:16;;;;;;;2.13;1.30;;;;;;;;;;5005004;28;20037;-74
2022/01/04 14:54:41;;;;;;;1.90;1.27;;;;;;;;;;5002198;28;20092;-74
2022/01/04 14:57:07;;;;;;;2.72;1.52;;;;;;;;;;5009916;28;20038;-75